Terminal Aerodrome Forecast
Issued by NWS

Home | Current Version | Previous Version | Text Only | Print | Product List | Glossary On
Versions: 1 2 3 4 5 6 7 8 9 10 11 12 13 14 15 16
000
FTUS41 KPBZ 301700
TAFZZV
TAF
KZZV 301720Z 3018/3118 29014G24KT P6SM SCT045
     FM310000 25005KT P6SM SCT050
     FM310900 21008KT P6SM BKN050
     FM311500 23014G29KT P6SM -SHRA BKN025=

USA.gov is the U.S. government's official web portal to all federal, state and local government web resources and services.